LFRQ/UIP METAR and TAF weather

Enter ICAO airport designator
Station Type Date Time Source
LFRQ METAR 2020/07/05 04:00 UTC NOAA

LFRQ 050400Z AUTO 26008KT 3100 -DZ BR OVC003 16/16 Q1019


Station Type Date Time Source
LFRQ Decoded METAR 2020/07/05 04:00 UTC NOAA

Quimper, France (LFRQ) 47-58N 004-10W 94M
Jul 05, 2020 - 12:00 AM EDT / 2020.07.05 0400 UTC
Wind: from the W (260 degrees) at 9 MPH (8 KT):0
Visibility: 1 mile(s):0
Sky conditions: overcast
Weather: light drizzle; mist
Temperature: 60 F (16 C)
Dew Point: 60 F (16 C)
Relative Humidity: 100%
Pressure (altimeter): 30.09 in. Hg (1019 hPa)
ob: LFRQ 050400Z AUTO 26008KT 3100 -DZ BR OVC003 16/16 Q1019
cycle: 4

Station Type Date Time Source
LFRQ TAF 2020/07/04 21:07 UTC NOAA

TAF LFRQ 042100Z 0421/0518 CNL

Example: see airport list